Time;durP1;ratioP1;P1;durP2;ratioP2;P2;SDS_P1;SDS_P2;PMS_P1;PMS_P2;Temp;Humidity;BMP_temperature;BMP_pressure;BME280_temperature;BME280_humidity;BME280_pressure;Samples;Min_cycle;Max_cycle;Signal;HPM_P1;HPM_P2
2022/05/30 00:00:12;;;;;;;5.22;0.93;;;;;;;;;;5123033;28;20031;-62
2022/05/30 00:02:39;;;;;;;3.78;1.10;;;;;;;;;;5101434;28;20035;-63
2022/05/30 00:05:05;;;;;;;5.00;0.98;;;;;;;;;;5125719;28;20035;-62
2022/05/30 00:07:31;;;;;;;3.47;1.08;;;;;;;;;;5116714;28;20035;-62
2022/05/30 00:09:57;;;;;;;3.83;1.08;;;;;;;;;;5113480;28;20032;-63
2022/05/30 00:12:23;;;;;;;3.08;0.88;;;;;;;;;;5117252;28;20031;-62
2022/05/30 00:14:49;;;;;;;4.78;1.00;;;;;;;;;;5118140;28;20266;-62
2022/05/30 00:17:15;;;;;;;4.70;1.13;;;;;;;;;;5127198;28;20036;-62
2022/05/30 00:19:41;;;;;;;3.55;0.98;;;;;;;;;;5118764;28;20040;-62
2022/05/30 00:22:11;;;;;;;1.70;0.88;;;;;;;;;;5108593;28;20028;-62
2022/05/30 00:24:37;;;;;;;3.75;1.30;;;;;;;;;;5123471;27;20070;-62
2022/05/30 00:27:04;;;;;;;4.78;1.08;;;;;;;;;;5109413;28;20059;-62
2022/05/30 00:29:30;;;;;;;4.45;0.85;;;;;;;;;;5110253;28;20044;-62
2022/05/30 00:31:56;;;;;;;3.28;0.80;;;;;;;;;;5117191;27;20080;-62
2022/05/30 00:34:23;;;;;;;3.10;0.88;;;;;;;;;;5119717;27;20043;-62
2022/05/30 00:36:49;;;;;;;2.88;0.90;;;;;;;;;;5115239;27;20105;-61
2022/05/30 00:39:15;;;;;;;3.15;1.10;;;;;;;;;;5120910;27;20036;-61
2022/05/30 00:41:41;;;;;;;3.72;0.82;;;;;;;;;;5102685;27;20032;-61
2022/05/30 00:44:07;;;;;;;6.45;1.40;;;;;;;;;;5124065;27;20040;-62
2022/05/30 00:46:34;;;;;;;4.30;1.00;;;;;;;;;;5117203;22;20042;-59
2022/05/30 00:49:05;;;;;;;1.60;1.00;;;;;;;;;;5102177;28;20070;-59
2022/05/30 00:51:31;;;;;;;3.83;1.08;;;;;;;;;;5106322;28;20080;-59
2022/05/30 00:53:58;;;;;;;2.70;1.00;;;;;;;;;;5102395;28;20180;-59
2022/05/30 00:56:26;;;;;;;3.15;1.13;;;;;;;;;;5088951;28;20043;-59
2022/05/30 00:58:52;;;;;;;3.85;1.20;;;;;;;;;;5081835;28;20048;-59
2022/05/30 01:01:19;;;;;;;3.30;1.10;;;;;;;;;;5090530;28;20040;-59
2022/05/30 01:06:44;;;;;;;4.18;1.30;;;;;;;;;;5091413;28;20053;-59
2022/05/30 01:09:14;;;;;;;4.43;1.35;;;;;;;;;;5093471;28;20036;-59
2022/05/30 01:11:55;;;;;;;4.47;1.60;;;;;;;;;;5087562;28;20051;-59
2022/05/30 01:14:21;;;;;;;6.10;1.25;;;;;;;;;;5090501;28;20054;-59
2022/05/30 01:16:48;;;;;;;5.63;1.50;;;;;;;;;;5092207;28;20043;-59
2022/05/30 01:19:24;;;;;;;4.07;1.48;;;;;;;;;;5088828;28;20039;-59
2022/05/30 01:21:56;;;;;;;3.95;1.60;;;;;;;;;;5089664;28;20040;-59
2022/05/30 01:24:43;;;;;;;4.40;1.38;;;;;;;;;;5089757;28;20084;-59
2022/05/30 01:27:19;;;;;;;5.30;1.50;;;;;;;;;;5080976;28;20440;-59
2022/05/30 01:29:47;;;;;;;2.75;1.30;;;;;;;;;;5090369;28;20032;-59
2022/05/30 01:32:20;;;;;;;5.88;1.70;;;;;;;;;;5069519;28;20044;-59
2022/05/30 01:34:47;;;;;;;4.65;1.77;;;;;;;;;;5084096;28;20048;-59
2022/05/30 01:37:13;;;;;;;7.88;1.90;;;;;;;;;;5093204;28;20040;-59
2022/05/30 01:39:39;;;;;;;5.03;1.60;;;;;;;;;;5083492;28;20090;-59
2022/05/30 01:42:06;;;;;;;4.43;1.73;;;;;;;;;;5090505;28;20047;-59
2022/05/30 01:44:32;;;;;;;6.88;1.85;;;;;;;;;;5089231;28;20038;-59
2022/05/30 01:46:58;;;;;;;6.03;1.80;;;;;;;;;;5092882;28;20111;-59
2022/05/30 01:49:24;;;;;;;6.50;1.52;;;;;;;;;;5089271;28;20043;-59
2022/05/30 01:51:53;;;;;;;2.78;1.45;;;;;;;;;;5091478;28;20072;-59
2022/05/30 01:54:19;;;;;;;4.80;1.92;;;;;;;;;;5088360;28;20035;-59
2022/05/30 01:56:46;;;;;;;8.70;1.70;;;;;;;;;;5091766;28;20075;-60
2022/05/30 01:59:12;;;;;;;6.55;2.00;;;;;;;;;;5084140;28;20046;-59
2022/05/30 02:01:39;;;;;;;4.40;1.80;;;;;;;;;;5085682;28;20032;-59
2022/05/30 02:04:05;;;;;;;6.60;2.13;;;;;;;;;;5070444;28;20039;-59
2022/05/30 02:06:35;;;;;;;4.70;1.90;;;;;;;;;;5090306;28;20089;-59
2022/05/30 02:09:01;;;;;;;5.65;1.80;;;;;;;;;;5088114;28;20131;-59
2022/05/30 02:11:27;;;;;;;4.95;1.75;;;;;;;;;;5091662;28;20493;-59
2022/05/30 02:13:53;;;;;;;6.40;2.17;;;;;;;;;;5083221;28;20472;-59
2022/05/30 02:19:06;;;;;;;4.15;1.60;;;;;;;;;;5090857;28;20051;-59
2022/05/30 02:21:32;;;;;;;8.15;1.90;;;;;;;;;;5089810;28;20127;-59
2022/05/30 02:23:58;;;;;;;5.72;1.70;;;;;;;;;;5089673;28;20028;-59
2022/05/30 02:26:24;;;;;;;4.05;2.08;;;;;;;;;;5091057;28;20066;-59
2022/05/30 02:28:50;;;;;;;4.85;1.95;;;;;;;;;;5086837;28;20446;-59
2022/05/30 02:31:17;;;;;;;5.13;1.90;;;;;;;;;;5086092;28;20068;-59
2022/05/30 02:36:40;;;;;;;7.60;2.15;;;;;;;;;;5088539;28;20044;-59
2022/05/30 02:39:07;;;;;;;7.18;2.13;;;;;;;;;;5087450;28;20036;-59
2022/05/30 02:41:33;;;;;;;6.20;2.20;;;;;;;;;;5086365;28;20097;-59
2022/05/30 02:43:59;;;;;;;6.75;2.10;;;;;;;;;;5090748;28;20040;-59
2022/05/30 02:46:25;;;;;;;3.80;1.63;;;;;;;;;;5091290;28;20034;-59
2022/05/30 02:48:51;;;;;;;5.68;2.33;;;;;;;;;;5085569;28;20115;-59
2022/05/30 02:51:17;;;;;;;5.55;1.92;;;;;;;;;;5089804;28;20040;-59
2022/05/30 02:53:43;;;;;;;4.10;1.80;;;;;;;;;;5084507;28;20040;-59
2022/05/30 02:56:11;;;;;;;6.30;2.00;;;;;;;;;;5088435;28;20482;-59
2022/05/30 02:58:37;;;;;;;5.25;1.90;;;;;;;;;;5090452;28;20046;-59
2022/05/30 03:01:03;;;;;;;4.93;2.15;;;;;;;;;;5091312;28;20040;-59
2022/05/30 03:03:29;;;;;;;7.95;1.88;;;;;;;;;;5090875;28;20494;-59
2022/05/30 03:05:55;;;;;;;7.47;2.20;;;;;;;;;;5084366;28;20119;-59
2022/05/30 03:08:21;;;;;;;6.72;2.17;;;;;;;;;;5089849;28;20119;-59
2022/05/30 03:10:47;;;;;;;5.85;2.50;;;;;;;;;;5090636;28;20115;-59
2022/05/30 03:13:13;;;;;;;4.47;2.00;;;;;;;;;;5089567;28;20036;-59
2022/05/30 03:15:39;;;;;;;4.55;1.95;;;;;;;;;;5089658;28;20490;-59
2022/05/30 03:18:06;;;;;;;7.93;2.42;;;;;;;;;;5072161;28;20032;-59
2022/05/30 03:20:32;;;;;;;5.10;2.13;;;;;;;;;;5088330;28;20043;-59
2022/05/30 03:22:58;;;;;;;6.60;2.15;;;;;;;;;;5088908;28;20032;-59
2022/05/30 03:25:24;;;;;;;9.18;2.10;;;;;;;;;;5089824;28;20519;-59
2022/05/30 03:27:54;;;;;;;10.55;3.05;;;;;;;;;;5054856;28;20043;-59
2022/05/30 03:30:21;;;;;;;5.22;2.13;;;;;;;;;;5067911;28;20048;-59
2022/05/30 03:32:47;;;;;;;6.68;2.33;;;;;;;;;;5086315;28;20040;-59
2022/05/30 03:35:13;;;;;;;8.18;2.05;;;;;;;;;;5090659;28;20035;-59
2022/05/30 03:37:40;;;;;;;7.10;2.40;;;;;;;;;;5082272;28;20404;-59
2022/05/30 03:40:07;;;;;;;5.88;2.33;;;;;;;;;;5083834;28;20048;-59
2022/05/30 03:42:33;;;;;;;5.00;2.38;;;;;;;;;;5086036;28;20035;-58
2022/05/30 03:44:59;;;;;;;4.65;1.98;;;;;;;;;;5088478;28;20044;-59
2022/05/30 03:47:25;;;;;;;5.15;1.90;;;;;;;;;;5089135;28;20028;-59
2022/05/30 03:49:57;;;;;;;5.10;2.28;;;;;;;;;;5088833;28;20043;-59
2022/05/30 03:52:23;;;;;;;4.38;2.10;;;;;;;;;;5090588;28;20501;-59
2022/05/30 03:54:49;;;;;;;6.00;2.10;;;;;;;;;;5069704;28;20093;-59
2022/05/30 03:57:15;;;;;;;5.68;2.05;;;;;;;;;;5089444;28;20548;-59
2022/05/30 03:59:41;;;;;;;4.05;2.08;;;;;;;;;;5070228;28;20059;-59
2022/05/30 04:02:07;;;;;;;7.10;2.40;;;;;;;;;;5092017;28;20063;-59
2022/05/30 04:04:33;;;;;;;6.20;1.90;;;;;;;;;;5090833;28;20036;-59
2022/05/30 04:07:00;;;;;;;5.03;2.35;;;;;;;;;;5088323;28;20074;-59
2022/05/30 04:09:26;;;;;;;5.47;2.50;;;;;;;;;;5087191;28;20521;-59
2022/05/30 04:11:52;;;;;;;7.13;2.53;;;;;;;;;;5084527;28;20048;-59
2022/05/30 04:14:18;;;;;;;7.28;2.50;;;;;;;;;;5088567;28;20032;-59
2022/05/30 04:16:44;;;;;;;5.50;2.15;;;;;;;;;;5090547;28;20409;-59
2022/05/30 04:19:10;;;;;;;4.35;2.25;;;;;;;;;;5088733;28;20060;-59
2022/05/30 04:21:36;;;;;;;6.47;2.33;;;;;;;;;;5092892;28;20471;-59
2022/05/30 04:24:02;;;;;;;3.20;2.17;;;;;;;;;;5091760;28;20036;-59
2022/05/30 04:26:28;;;;;;;3.97;1.90;;;;;;;;;;5091985;28;20056;-59
2022/05/30 04:28:54;;;;;;;5.10;2.30;;;;;;;;;;5092530;28;20067;-59
2022/05/30 04:31:20;;;;;;;8.75;2.90;;;;;;;;;;5084947;28;20046;-59
2022/05/30 04:33:46;;;;;;;7.18;2.70;;;;;;;;;;5092920;28;20038;-59
2022/05/30 04:36:13;;;;;;;3.78;2.25;;;;;;;;;;5090318;28;20394;-59
2022/05/30 04:38:39;;;;;;;5.70;2.20;;;;;;;;;;5089556;28;20032;-59
2022/05/30 04:41:05;;;;;;;5.88;2.60;;;;;;;;;;5098624;28;20119;-59
2022/05/30 04:43:31;;;;;;;5.90;2.97;;;;;;;;;;5089998;28;20035;-59
2022/05/30 04:46:03;;;;;;;4.82;2.47;;;;;;;;;;5092975;28;20471;-59
2022/05/30 04:48:29;;;;;;;4.90;2.38;;;;;;;;;;5092704;28;20032;-59
2022/05/30 04:50:55;;;;;;;6.13;2.55;;;;;;;;;;5090889;28;20432;-59
2022/05/30 04:53:21;;;;;;;6.65;3.08;;;;;;;;;;5093511;28;20062;-59
2022/05/30 04:55:47;;;;;;;6.13;2.85;;;;;;;;;;5092460;28;20378;-59
2022/05/30 04:58:13;;;;;;;4.50;2.35;;;;;;;;;;5092954;28;20063;-59
2022/05/30 05:00:39;;;;;;;3.85;2.30;;;;;;;;;;5086135;28;20470;-59
2022/05/30 05:03:05;;;;;;;7.35;3.05;;;;;;;;;;5093634;28;20047;-59
2022/05/30 05:05:31;;;;;;;6.15;3.33;;;;;;;;;;5087115;28;20114;-59
2022/05/30 05:08:06;;;;;;;10.48;3.20;;;;;;;;;;5092530;28;20071;-59
2022/05/30 05:10:32;;;;;;;6.55;3.00;;;;;;;;;;5066172;28;20055;-59
2022/05/30 05:12:58;;;;;;;9.65;3.35;;;;;;;;;;5087816;28;20035;-59
2022/05/30 05:15:24;;;;;;;7.88;3.05;;;;;;;;;;5092031;28;20032;-59
2022/05/30 05:17:50;;;;;;;9.00;2.90;;;;;;;;;;5087659;28;20036;-59
2022/05/30 05:20:16;;;;;;;4.85;2.78;;;;;;;;;;5087806;28;20465;-59
2022/05/30 05:22:42;;;;;;;7.00;2.95;;;;;;;;;;5072643;28;20115;-59
2022/05/30 05:25:08;;;;;;;9.95;3.60;;;;;;;;;;5091481;28;20534;-59
2022/05/30 05:27:34;;;;;;;5.68;3.47;;;;;;;;;;5084055;28;20387;-59
2022/05/30 05:30:00;;;;;;;5.47;2.88;;;;;;;;;;5090726;28;20045;-59
2022/05/30 05:32:26;;;;;;;5.55;3.42;;;;;;;;;;5091784;28;20385;-59
2022/05/30 05:34:52;;;;;;;7.05;3.30;;;;;;;;;;5090918;28;20042;-59
2022/05/30 05:37:18;;;;;;;7.32;3.30;;;;;;;;;;5091078;28;20039;-59
2022/05/30 05:39:44;;;;;;;4.85;3.00;;;;;;;;;;5061342;28;20509;-59
2022/05/30 05:42:10;;;;;;;7.32;3.60;;;;;;;;;;5089238;28;20048;-59
2022/05/30 05:44:37;;;;;;;6.60;3.42;;;;;;;;;;5092711;28;20036;-59
2022/05/30 05:47:03;;;;;;;12.45;3.75;;;;;;;;;;5087375;28;20040;-59
2022/05/30 05:49:29;;;;;;;7.22;3.17;;;;;;;;;;5088322;28;20142;-59
2022/05/30 05:51:55;;;;;;;9.30;3.10;;;;;;;;;;5088665;28;20127;-59
2022/05/30 05:54:25;;;;;;;5.72;3.28;;;;;;;;;;5087055;28;20032;-59
2022/05/30 05:56:52;;;;;;;7.78;3.58;;;;;;;;;;5088082;28;20044;-59
2022/05/30 05:59:18;;;;;;;8.95;3.05;;;;;;;;;;5089392;28;20039;-59
2022/05/30 06:01:44;;;;;;;9.65;2.80;;;;;;;;;;5088442;28;20424;-59
2022/05/30 06:04:10;;;;;;;5.75;2.80;;;;;;;;;;5090112;28;20024;-60
2022/05/30 06:06:36;;;;;;;9.10;2.60;;;;;;;;;;5086041;28;20035;-59
2022/05/30 06:09:04;;;;;;;6.30;2.45;;;;;;;;;;5084473;28;20032;-59
2022/05/30 06:11:31;;;;;;;6.13;2.55;;;;;;;;;;5088394;28;20515;-59
2022/05/30 06:13:58;;;;;;;7.47;2.75;;;;;;;;;;5088273;28;20040;-59
2022/05/30 06:16:25;;;;;;;6.45;2.38;;;;;;;;;;5088538;28;20539;-59
2022/05/30 06:18:52;;;;;;;4.95;2.10;;;;;;;;;;5088242;28;20044;-59
2022/05/30 06:21:18;;;;;;;5.80;2.05;;;;;;;;;;5091103;28;20397;-59
2022/05/30 06:23:45;;;;;;;7.68;2.20;;;;;;;;;;5088235;28;20044;-59
2022/05/30 06:26:12;;;;;;;5.10;2.10;;;;;;;;;;5091222;28;20036;-59
2022/05/30 06:28:39;;;;;;;3.78;1.92;;;;;;;;;;5082821;28;20107;-59
2022/05/30 06:31:16;;;;;;;5.15;1.80;;;;;;;;;;5069120;28;20047;-60
2022/05/30 06:33:42;;;;;;;5.07;1.70;;;;;;;;;;5091189;28;20420;-59
2022/05/30 06:36:09;;;;;;;5.28;1.30;;;;;;;;;;5087291;28;20040;-59
2022/05/30 06:38:36;;;;;;;6.07;1.30;;;;;;;;;;5068086;28;20123;-59
2022/05/30 06:41:09;;;;;;;3.70;1.23;;;;;;;;;;5070305;28;20047;-59
2022/05/30 06:43:35;;;;;;;4.53;1.35;;;;;;;;;;5091915;28;20043;-59
2022/05/30 06:46:02;;;;;;;4.70;1.20;;;;;;;;;;5112593;22;20050;-63
2022/05/30 06:48:28;;;;;;;2.97;1.35;;;;;;;;;;5111706;28;20077;-63
2022/05/30 06:50:54;;;;;;;2.67;1.58;;;;;;;;;;5097010;28;20036;-63
2022/05/30 06:53:20;;;;;;;2.33;1.60;;;;;;;;;;5100078;28;20031;-63
2022/05/30 06:55:50;;;;;;;3.30;1.45;;;;;;;;;;5106122;28;20518;-63
2022/05/30 06:58:16;;;;;;;4.97;1.40;;;;;;;;;;5093593;28;20134;-63
2022/05/30 07:00:46;;;;;;;5.65;1.13;;;;;;;;;;5081370;28;20113;-63
2022/05/30 07:03:14;;;;;;;3.78;1.15;;;;;;;;;;5081388;28;20036;-63
2022/05/30 07:05:41;;;;;;;3.33;1.13;;;;;;;;;;5081394;28;20063;-63
2022/05/30 07:08:07;;;;;;;3.28;0.90;;;;;;;;;;5082204;28;20060;-63
2022/05/30 07:10:35;;;;;;;4.00;1.15;;;;;;;;;;5080768;28;20032;-63
2022/05/30 07:13:01;;;;;;;3.03;0.93;;;;;;;;;;5083805;28;20044;-63
2022/05/30 07:15:30;;;;;;;3.70;1.02;;;;;;;;;;5085859;28;20369;-63
2022/05/30 07:17:56;;;;;;;3.97;1.45;;;;;;;;;;5067162;28;20101;-63
2022/05/30 07:20:22;;;;;;;3.70;0.98;;;;;;;;;;5078690;28;20112;-63
2022/05/30 07:22:48;;;;;;;3.97;1.35;;;;;;;;;;5078431;28;20036;-63
2022/05/30 07:25:14;;;;;;;3.15;0.98;;;;;;;;;;5086971;28;20032;-63
2022/05/30 07:27:40;;;;;;;2.75;0.85;;;;;;;;;;5082052;28;20032;-63
2022/05/30 07:30:06;;;;;;;2.05;0.80;;;;;;;;;;5090516;28;20024;-63
2022/05/30 07:32:33;;;;;;;4.60;1.05;;;;;;;;;;5102332;28;20036;-63
2022/05/30 07:34:59;;;;;;;2.25;0.60;;;;;;;;;;5081703;28;20410;-63
2022/05/30 07:37:25;;;;;;;2.28;0.47;;;;;;;;;;5086601;28;20450;-64
2022/05/30 07:39:51;;;;;;;2.53;0.63;;;;;;;;;;5083747;28;20067;-64
2022/05/30 07:42:17;;;;;;;1.90;0.73;;;;;;;;;;5097667;28;20078;-64
2022/05/30 07:44:43;;;;;;;1.90;0.70;;;;;;;;;;5090520;28;20064;-64
2022/05/30 07:47:11;;;;;;;0.65;0.50;;;;;;;;;;5080507;28;20090;-64
2022/05/30 07:49:37;;;;;;;1.52;0.50;;;;;;;;;;5086921;28;20047;-64
2022/05/30 07:52:04;;;;;;;2.00;0.90;;;;;;;;;;5089866;28;20040;-64
2022/05/30 07:54:30;;;;;;;3.10;0.88;;;;;;;;;;5078615;28;20497;-64
2022/05/30 07:56:56;;;;;;;1.90;0.55;;;;;;;;;;5095069;28;20058;-65
2022/05/30 07:59:22;;;;;;;2.30;0.88;;;;;;;;;;5078399;28;20448;-64
2022/05/30 08:01:48;;;;;;;2.45;0.52;;;;;;;;;;5074822;28;20081;-64
2022/05/30 08:04:15;;;;;;;1.08;0.50;;;;;;;;;;5100043;28;20028;-64
2022/05/30 08:06:41;;;;;;;3.75;0.88;;;;;;;;;;5100544;28;20136;-64
2022/05/30 08:09:07;;;;;;;1.83;0.52;;;;;;;;;;5093137;28;20066;-64
2022/05/30 08:11:33;;;;;;;2.20;0.55;;;;;;;;;;5093023;28;20409;-65
2022/05/30 08:14:08;;;;;;;1.73;0.70;;;;;;;;;;5086618;28;20036;-65
2022/05/30 08:16:37;;;;;;;1.85;0.60;;;;;;;;;;5067382;28;20461;-64
2022/05/30 08:19:04;;;;;;;1.33;0.63;;;;;;;;;;5095832;28;20055;-65
2022/05/30 08:21:30;;;;;;;3.33;0.80;;;;;;;;;;5094369;28;20503;-65
2022/05/30 08:23:56;;;;;;;1.35;0.70;;;;;;;;;;5090469;28;20032;-65
2022/05/30 08:26:22;;;;;;;1.25;0.50;;;;;;;;;;5095222;28;20502;-65
2022/05/30 08:28:48;;;;;;;1.10;0.30;;;;;;;;;;5111424;28;20043;-65
2022/05/30 08:31:15;;;;;;;1.48;0.40;;;;;;;;;;5107332;28;20185;-65
2022/05/30 08:33:41;;;;;;;2.10;0.60;;;;;;;;;;5086983;28;20486;-65
2022/05/30 08:36:08;;;;;;;2.97;0.77;;;;;;;;;;5102040;28;20035;-65
2022/05/30 08:38:36;;;;;;;0.70;0.50;;;;;;;;;;5094246;28;20415;-65
2022/05/30 08:43:52;;;;;;;1.48;0.40;;;;;;;;;;5099436;28;20040;-65
2022/05/30 08:46:21;;;;;;;1.10;0.35;;;;;;;;;;5101766;28;20034;-65
2022/05/30 08:49:07;;;;;;;1.20;0.40;;;;;;;;;;5087536;28;20046;-65
2022/05/30 08:51:43;;;;;;;1.63;0.40;;;;;;;;;;5095454;28;20046;-65
2022/05/30 08:54:18;;;;;;;1.85;0.45;;;;;;;;;;5084232;28;20396;-65
2022/05/30 08:56:47;;;;;;;0.95;0.40;;;;;;;;;;5102749;28;20044;-65
2022/05/30 08:59:32;;;;;;;2.50;0.50;;;;;;;;;;5093123;28;20570;-65
2022/05/30 09:02:20;;;;;;;1.35;0.60;;;;;;;;;;5099432;28;20432;-65
2022/05/30 09:04:54;;;;;;;1.95;0.60;;;;;;;;;;5096935;28;20040;-65
2022/05/30 09:07:22;;;;;;;1.95;0.70;;;;;;;;;;5102676;28;20039;-64
2022/05/30 09:10:07;;;;;;;1.25;0.52;;;;;;;;;;5093725;28;20040;-65
2022/05/30 09:12:35;;;;;;;2.90;0.50;;;;;;;;;;5099996;28;20036;-65
2022/05/30 09:15:06;;;;;;;4.13;0.70;;;;;;;;;;5096727;28;20516;-65
2022/05/30 09:17:41;;;;;;;1.52;0.38;;;;;;;;;;5109403;28;20071;-65
2022/05/30 09:20:09;;;;;;;2.25;0.60;;;;;;;;;;5074336;28;20071;-65
2022/05/30 09:22:38;;;;;;;1.63;0.65;;;;;;;;;;5098611;28;20047;-65
2022/05/30 09:27:49;;;;;;;2.85;0.70;;;;;;;;;;5101874;28;20393;-65
2022/05/30 09:30:17;;;;;;;2.05;0.52;;;;;;;;;;5105222;28;20111;-65
2022/05/30 09:32:46;;;;;;;1.17;0.70;;;;;;;;;;5108484;28;20482;-65
2022/05/30 09:35:41;;;;;;;1.88;0.95;;;;;;;;;;5084212;28;20385;-65
2022/05/30 09:38:07;;;;;;;2.78;1.35;;;;;;;;;;5110369;28;20070;-65
2022/05/30 09:40:39;;;;;;;2.63;0.88;;;;;;;;;;5097164;28;20061;-64
2022/05/30 09:43:07;;;;;;;0.60;0.50;;;;;;;;;;5087884;28;20036;-65
2022/05/30 09:45:33;;;;;;;1.15;0.40;;;;;;;;;;5097484;28;20528;-64
2022/05/30 09:47:59;;;;;;;2.75;0.60;;;;;;;;;;5089126;28;20036;-65
2022/05/30 09:50:25;;;;;;;1.50;0.50;;;;;;;;;;5098429;28;20039;-65
2022/05/30 09:52:51;;;;;;;1.50;0.38;;;;;;;;;;5111404;28;20476;-65
2022/05/30 09:55:20;;;;;;;0.47;0.40;;;;;;;;;;5096853;28;20116;-65
2022/05/30 09:57:47;;;;;;;1.20;0.30;;;;;;;;;;5099458;28;20040;-65
2022/05/30 10:00:18;;;;;;;1.45;0.40;;;;;;;;;;5112643;28;20044;-65
2022/05/30 10:02:45;;;;;;;0.63;0.40;;;;;;;;;;5106218;28;20531;-65
2022/05/30 10:05:14;;;;;;;0.80;0.30;;;;;;;;;;5096349;28;20038;-65
2022/05/30 10:07:50;;;;;;;0.30;0.20;;;;;;;;;;5094951;28;20032;-65
2022/05/30 10:10:24;;;;;;;0.95;0.32;;;;;;;;;;5090658;28;20455;-65
2022/05/30 10:12:57;;;;;;;2.00;0.50;;;;;;;;;;5104725;28;20040;-65
2022/05/30 10:15:26;;;;;;;1.08;0.45;;;;;;;;;;5100524;28;20032;-65
2022/05/30 10:17:52;;;;;;;0.95;0.40;;;;;;;;;;5100092;28;20047;-65
2022/05/30 10:20:26;;;;;;;0.98;0.40;;;;;;;;;;5096513;28;20080;-65
2022/05/30 10:28:54;;;;;;;0.95;0.30;;;;;;;;;;5106062;28;20040;-65
2022/05/30 10:31:49;;;;;;;1.15;0.30;;;;;;;;;;5085170;28;20107;-65
2022/05/30 10:34:15;;;;;;;1.17;0.40;;;;;;;;;;5064728;28;20122;-65
2022/05/30 10:36:59;;;;;;;1.75;0.40;;;;;;;;;;5091870;28;20506;-65
2022/05/30 10:39:35;;;;;;;1.42;0.47;;;;;;;;;;5100210;28;20489;-65
2022/05/30 10:42:04;;;;;;;3.03;0.63;;;;;;;;;;5110032;28;20032;-65
2022/05/30 10:44:35;;;;;;;1.25;0.55;;;;;;;;;;5097503;28;20039;-65
2022/05/30 10:47:07;;;;;;;2.22;0.38;;;;;;;;;;5103652;28;20051;-66
2022/05/30 10:49:35;;;;;;;1.67;0.40;;;;;;;;;;5097154;28;20036;-65
2022/05/30 10:52:20;;;;;;;1.17;0.57;;;;;;;;;;5100950;28;20463;-65
2022/05/30 10:54:52;;;;;;;0.50;0.40;;;;;;;;;;5100514;28;20047;-65
2022/05/30 10:57:38;;;;;;;3.17;0.30;;;;;;;;;;5105582;28;20042;-65
2022/05/30 11:00:10;;;;;;;1.88;0.30;;;;;;;;;;5111454;28;20086;-65
2022/05/30 11:02:55;;;;;;;0.47;0.13;;;;;;;;;;5100082;28;20063;-65
2022/05/30 11:05:24;;;;;;;1.58;0.35;;;;;;;;;;5089758;28;20394;-65
2022/05/30 11:08:09;;;;;;;0.40;0.40;;;;;;;;;;5093561;28;20062;-65
2022/05/30 11:10:41;;;;;;;1.25;0.30;;;;;;;;;;5102708;28;20092;-65
2022/05/30 11:13:17;;;;;;;1.75;0.40;;;;;;;;;;5104827;28;20043;-65
2022/05/30 11:15:49;;;;;;;1.70;0.30;;;;;;;;;;5093245;28;20117;-66
2022/05/30 11:18:21;;;;;;;1.05;0.40;;;;;;;;;;5092896;28;20044;-65
2022/05/30 11:20:57;;;;;;;0.38;0.30;;;;;;;;;;5090780;28;20040;-65
2022/05/30 11:23:23;;;;;;;1.30;0.47;;;;;;;;;;5085296;28;20111;-66
2022/05/30 11:26:08;;;;;;;1.02;0.45;;;;;;;;;;5092607;28;20147;-65
2022/05/30 11:28:36;;;;;;;1.15;0.45;;;;;;;;;;5099921;28;20093;-65
2022/05/30 11:31:18;;;;;;;0.50;0.30;;;;;;;;;;5091645;28;20176;-65
2022/05/30 11:33:59;;;;;;;0.70;0.30;;;;;;;;;;5098282;28;20071;-65
2022/05/30 11:36:46;;;;;;;2.20;0.40;;;;;;;;;;5090740;28;20031;-65
2022/05/30 11:39:21;;;;;;;2.05;0.40;;;;;;;;;;5071306;28;20082;-65
2022/05/30 11:41:55;;;;;;;3.50;0.52;;;;;;;;;;5087395;28;20032;-65
2022/05/30 11:44:33;;;;;;;1.83;0.60;;;;;;;;;;5089071;28;20044;-65
2022/05/30 11:47:05;;;;;;;2.85;0.80;;;;;;;;;;5110171;28;20493;-65
2022/05/30 11:49:31;;;;;;;1.08;0.50;;;;;;;;;;5111641;28;20043;-65
2022/05/30 11:52:15;;;;;;;1.48;0.60;;;;;;;;;;5092354;28;20032;-65
2022/05/30 11:54:42;;;;;;;3.67;0.80;;;;;;;;;;5091438;28;20047;-65
2022/05/30 11:57:20;;;;;;;3.35;0.60;;;;;;;;;;5090674;28;20073;-65
2022/05/30 11:59:57;;;;;;;2.80;0.70;;;;;;;;;;5092854;28;20040;-65
2022/05/30 12:02:28;;;;;;;2.92;0.90;;;;;;;;;;5097374;28;20071;-65
2022/05/30 12:04:54;;;;;;;1.17;0.60;;;;;;;;;;5073549;28;20048;-65
2022/05/30 12:07:49;;;;;;;0.73;0.45;;;;;;;;;;5086568;28;20036;-65
2022/05/30 12:10:25;;;;;;;1.77;0.57;;;;;;;;;;5014305;28;20081;-65
2022/05/30 12:13:00;;;;;;;2.92;0.80;;;;;;;;;;5110622;28;20039;-65
2022/05/30 12:15:31;;;;;;;1.60;0.68;;;;;;;;;;5083590;28;20043;-65
2022/05/30 12:23:48;;;;;;;2.33;0.63;;;;;;;;;;5092826;28;20032;-65
2022/05/30 12:26:14;;;;;;;1.90;0.73;;;;;;;;;;5094764;28;20456;-65
2022/05/30 12:28:42;;;;;;;3.20;0.60;;;;;;;;;;5094292;28;20574;-65
2022/05/30 12:31:09;;;;;;;3.38;0.80;;;;;;;;;;5089577;28;20055;-65
2022/05/30 12:33:36;;;;;;;2.70;0.68;;;;;;;;;;5094542;28;20497;-65
2022/05/30 12:36:10;;;;;;;2.63;0.70;;;;;;;;;;5093543;28;20072;-65
2022/05/30 12:38:48;;;;;;;2.80;0.50;;;;;;;;;;5101328;28;20028;-65
2022/05/30 12:41:19;;;;;;;3.38;0.70;;;;;;;;;;5102503;28;20082;-65
2022/05/30 12:43:46;;;;;;;2.38;0.70;;;;;;;;;;5094822;28;20043;-65
2022/05/30 12:46:16;;;;;;;2.97;0.63;;;;;;;;;;5122294;22;20045;-65
2022/05/30 12:48:58;;;;;;;2.63;0.80;;;;;;;;;;5102933;27;20042;-65
2022/05/30 12:51:23;;;;;;;;;;;;;;;;;;5094310;28;20048;-65
2022/05/30 12:53:59;;;;;;;3.45;0.70;;;;;;;;;;5095111;27;20346;-65
2022/05/30 12:56:40;;;;;;;1.08;0.77;;;;;;;;;;5102775;28;20520;-65
2022/05/30 12:59:06;;;;;;;;;;;;;;;;;;5094441;28;20362;-65
2022/05/30 13:01:41;;;;;;;1.45;0.60;;;;;;;;;;5099492;28;19926;-65
2022/05/30 13:04:21;;;;;;;1.95;0.60;;;;;;;;;;5097066;28;20500;-65
2022/05/30 13:06:53;;;;;;;0.93;0.60;;;;;;;;;;5105314;28;20546;-65
2022/05/30 13:09:23;;;;;;;0.80;0.70;;;;;;;;;;5103965;28;20626;-64
2022/05/30 13:11:55;;;;;;;1.90;0.80;;;;;;;;;;5059488;28;20070;-65
2022/05/30 13:14:28;;;;;;;3.05;0.70;;;;;;;;;;5087359;28;20042;-65
2022/05/30 13:16:59;;;;;;;1.48;0.65;;;;;;;;;;5107664;28;20036;-64
2022/05/30 13:19:25;;;;;;;;;;;;;;;;;;5092859;28;20040;-65
2022/05/30 13:21:51;;;;;;;1.98;0.70;;;;;;;;;;5093095;28;19947;-65
2022/05/30 13:24:28;;;;;;;3.03;0.63;;;;;;;;;;5095966;28;20119;-65
2022/05/30 13:26:54;;;;;;;1.77;0.57;;;;;;;;;;5096335;28;20028;-65
2022/05/30 13:29:20;;;;;;;2.40;0.50;;;;;;;;;;5101438;28;20032;-65
2022/05/30 13:31:50;;;;;;;1.25;0.77;;;;;;;;;;5093554;28;20447;-65
2022/05/30 13:34:24;;;;;;;1.05;0.60;;;;;;;;;;5095269;28;20115;-64
2022/05/30 13:36:51;;;;;;;2.08;0.60;;;;;;;;;;5101958;28;20445;-64
2022/05/30 13:39:17;;;;;;;0.40;0.40;;;;;;;;;;5095636;28;20114;-65
2022/05/30 13:41:43;;;;;;;1.92;0.50;;;;;;;;;;5103227;28;20041;-65
2022/05/30 13:44:10;;;;;;;1.73;0.50;;;;;;;;;;5092986;28;20048;-65
2022/05/30 13:46:40;;;;;;;1.83;0.50;;;;;;;;;;5090200;28;20503;-65
2022/05/30 13:49:05;;;;;;;3.47;0.50;;;;;;;;;;5111183;28;20110;-65
2022/05/30 13:51:34;;;;;;;1.92;0.60;;;;;;;;;;5097176;28;20090;-65
2022/05/30 13:54:00;;;;;;;1.77;0.60;;;;;;;;;;5083110;28;20043;-65
2022/05/30 13:56:33;;;;;;;0.50;0.50;;;;;;;;;;5092838;28;20040;-65
2022/05/30 13:59:01;;;;;;;2.03;0.63;;;;;;;;;;5096997;28;20440;-65
2022/05/30 14:01:31;;;;;;;0.98;0.50;;;;;;;;;;5097709;28;20031;-65
2022/05/30 14:04:02;;;;;;;1.27;0.60;;;;;;;;;;5094234;28;20083;-65
2022/05/30 14:06:31;;;;;;;1.83;0.63;;;;;;;;;;5097758;28;20512;-65
2022/05/30 14:08:57;;;;;;;2.45;0.73;;;;;;;;;;5092276;28;20111;-65
2022/05/30 14:11:24;;;;;;;2.28;0.50;;;;;;;;;;5104791;28;20110;-65
2022/05/30 14:13:52;;;;;;;2.70;0.60;;;;;;;;;;5104164;28;20091;-65
2022/05/30 14:16:34;;;;;;;2.95;0.90;;;;;;;;;;5104298;28;20071;-65
2022/05/30 14:19:05;;;;;;;4.05;0.70;;;;;;;;;;5102178;28;20046;-65
2022/05/30 14:21:32;;;;;;;1.95;0.77;;;;;;;;;;5093985;28;20040;-65
2022/05/30 14:24:13;;;;;;;1.85;0.57;;;;;;;;;;5088529;28;20032;-65
2022/05/30 14:26:39;;;;;;;0.88;0.57;;;;;;;;;;5096117;28;20043;-65
2022/05/30 14:29:24;;;;;;;2.08;0.88;;;;;;;;;;5081336;28;20032;-65
2022/05/30 14:32:10;;;;;;;2.35;0.68;;;;;;;;;;5089361;28;20052;-62
2022/05/30 14:34:41;;;;;;;1.75;0.60;;;;;;;;;;5094850;28;20048;-62
2022/05/30 14:37:23;;;;;;;1.70;0.70;;;;;;;;;;5088678;28;20059;-63
2022/05/30 14:39:51;;;;;;;2.63;0.85;;;;;;;;;;5070965;28;20051;-63
2022/05/30 14:42:19;;;;;;;2.90;0.80;;;;;;;;;;5093892;28;20031;-63
2022/05/30 14:44:51;;;;;;;2.05;0.40;;;;;;;;;;5087046;28;20054;-63
2022/05/30 14:47:33;;;;;;;1.40;0.50;;;;;;;;;;5098517;28;20500;-62
2022/05/30 14:50:04;;;;;;;3.35;0.50;;;;;;;;;;5096829;28;20038;-63
2022/05/30 14:52:34;;;;;;;2.63;0.47;;;;;;;;;;5097047;28;20090;-62
2022/05/30 14:55:12;;;;;;;1.25;0.50;;;;;;;;;;5093429;28;20040;-62
2022/05/30 14:57:43;;;;;;;2.80;0.60;;;;;;;;;;5085609;28;20061;-62
2022/05/30 15:00:30;;;;;;;1.48;0.60;;;;;;;;;;5090378;28;20040;-62
2022/05/30 15:05:41;;;;;;;1.55;0.60;;;;;;;;;;5088340;28;20513;-62
2022/05/30 15:08:07;;;;;;;1.25;0.50;;;;;;;;;;5088968;28;20119;-62
2022/05/30 15:10:33;;;;;;;1.77;0.43;;;;;;;;;;5098455;28;20154;-62
2022/05/30 15:12:59;;;;;;;0.68;0.38;;;;;;;;;;5093800;28;20111;-62
2022/05/30 15:15:24;;;;;;;2.85;0.75;;;;;;;;;;5089467;28;20035;-63
2022/05/30 15:17:50;;;;;;;2.38;0.70;;;;;;;;;;5088057;28;20420;-62
2022/05/30 15:20:19;;;;;;;3.22;1.05;;;;;;;;;;5056646;28;20050;-63
2022/05/30 15:22:46;;;;;;;1.70;0.68;;;;;;;;;;5090364;28;20297;-62